Time;durP1;ratioP1;P1;durP2;ratioP2;P2;SDS_P1;SDS_P2;PMS_P1;PMS_P2;Temp;Humidity;BMP_temperature;BMP_pressure;BME280_temperature;BME280_humidity;BME280_pressure;Samples;Min_cycle;Max_cycle;Signal;HPM_P1;HPM_P2
2023/09/09 00:00:58;;;;;;;7.75;5.13;;;;;;;13.39;100.00;98667.50;3164078;23;20053;-89
2023/09/09 00:02:23;;;;;;;6.80;4.78;;;;;;;13.17;100.00;98669.19;3148435;23;20022;-89
2023/09/09 00:03:38;;;;;;;7.75;4.90;;;;;;;13.23;100.00;98671.59;3139548;23;20022;-88
2023/09/09 00:04:54;;;;;;;7.93;5.00;;;;;;;13.34;100.00;98672.06;3154513;23;20026;-89
2023/09/09 00:06:11;;;;;;;6.45;4.22;;;;;;;13.37;100.00;98665.84;3163750;23;20049;-89
2023/09/09 00:07:26;;;;;;;6.82;4.75;;;;;;;13.18;100.00;98661.22;3147941;23;20451;-88
2023/09/09 00:08:43;;;;;;;7.38;4.65;;;;;;;13.17;100.00;98666.56;3154705;23;20029;-89
2023/09/09 00:09:58;;;;;;;6.50;4.57;;;;;;;13.30;100.00;98666.97;3165063;23;20021;-89
2023/09/09 00:11:14;;;;;;;5.57;4.50;;;;;;;13.18;100.00;98660.38;3149761;23;20382;-89
2023/09/09 00:12:29;;;;;;;6.63;4.70;;;;;;;13.06;100.00;98661.66;3154701;23;20018;-89
2023/09/09 00:13:45;;;;;;;8.18;4.90;;;;;;;12.97;100.00;98661.09;3149165;23;20026;-89
2023/09/09 00:15:07;;;;;;;8.40;4.30;;;;;;;12.96;100.00;98658.50;3154348;23;20036;-89
2023/09/09 00:16:22;;;;;;;6.88;4.45;;;;;;;12.95;100.00;98656.78;3164161;23;20073;-89
2023/09/09 00:17:38;;;;;;;9.10;4.88;;;;;;;12.94;100.00;98652.44;3165320;23;20022;-89
2023/09/09 00:18:55;;;;;;;8.32;4.60;;;;;;;13.04;100.00;98656.47;3164521;23;20026;-89
2023/09/09 00:20:14;;;;;;;9.43;4.40;;;;;;;13.00;100.00;98653.09;3164301;23;20026;-89
2023/09/09 00:21:30;;;;;;;7.95;4.95;;;;;;;12.95;100.00;98652.41;3166216;23;20024;-89
2023/09/09 00:22:45;;;;;;;7.32;4.70;;;;;;;12.98;100.00;98654.91;3150161;23;20050;-89
2023/09/09 00:24:01;;;;;;;6.72;4.78;;;;;;;12.99;100.00;98653.13;3157447;23;20374;-90
2023/09/09 00:25:17;;;;;;;6.60;4.53;;;;;;;13.02;100.00;98649.53;3165166;23;20029;-88
2023/09/09 00:26:33;;;;;;;7.43;4.60;;;;;;;13.00;100.00;98654.88;3165421;23;20469;-89
2023/09/09 00:27:48;;;;;;;7.20;4.50;;;;;;;12.82;100.00;98646.69;3164066;23;20395;-89
2023/09/09 00:29:04;;;;;;;8.38;4.80;;;;;;;12.91;100.00;98650.75;3164171;23;20455;-89
2023/09/09 00:30:20;;;;;;;7.35;4.70;;;;;;;12.90;100.00;98654.31;3164207;23;20426;-89
2023/09/09 00:31:35;;;;;;;7.78;4.25;;;;;;;12.96;100.00;98647.97;3164754;23;20414;-89
2023/09/09 00:32:51;;;;;;;6.78;4.32;;;;;;;12.81;100.00;98650.22;3163826;23;20026;-89
2023/09/09 00:34:06;;;;;;;6.07;4.22;;;;;;;12.81;100.00;98654.63;3148382;23;20030;-89
2023/09/09 00:35:22;;;;;;;6.90;4.45;;;;;;;12.72;100.00;98647.94;3155748;23;20105;-89
2023/09/09 00:36:37;;;;;;;6.70;4.78;;;;;;;12.77;100.00;98637.22;3147822;23;20540;-89
2023/09/09 00:37:54;;;;;;;8.57;4.30;;;;;;;12.76;100.00;98644.28;3155589;23;20022;-90
2023/09/09 00:39:09;;;;;;;7.80;4.32;;;;;;;12.79;100.00;98644.16;3147764;23;20022;-90
2023/09/09 00:40:25;;;;;;;6.18;4.30;;;;;;;12.67;100.00;98642.81;3154901;23;20024;-89
2023/09/09 00:41:41;;;;;;;6.60;5.03;;;;;;;12.55;100.00;98645.84;3163855;23;20030;-90
2023/09/09 00:42:56;;;;;;;6.40;4.65;;;;;;;12.45;100.00;98639.16;3163708;23;20026;-89
2023/09/09 00:44:12;;;;;;;8.65;4.65;;;;;;;12.49;100.00;98640.78;3165149;23;20022;-89
2023/09/09 00:45:28;;;;;;;7.28;4.40;;;;;;;12.49;100.00;98639.03;3164143;23;20514;-89
2023/09/09 00:46:43;;;;;;;6.93;4.40;;;;;;;12.49;100.00;98641.66;3165258;23;20029;-89
2023/09/09 00:47:59;;;;;;;6.15;4.45;;;;;;;12.61;100.00;98639.53;3164125;23;20022;-88
2023/09/09 00:49:15;;;;;;;6.70;4.03;;;;;;;12.64;100.00;98636.81;3165147;23;20079;-89
2023/09/09 00:50:31;;;;;;;5.60;4.35;;;;;;;12.68;100.00;98639.28;3163782;23;20450;-91
2023/09/09 00:51:46;;;;;;;8.18;4.75;;;;;;;12.71;100.00;98638.28;3163148;23;20022;-88
2023/09/09 00:53:02;;;;;;;7.47;4.45;;;;;;;12.72;100.00;98637.41;3165340;23;20612;-88
2023/09/09 00:54:18;;;;;;;6.60;4.55;;;;;;;12.61;100.00;98639.53;3163215;23;20100;-89
2023/09/09 00:55:39;;;;;;;6.93;4.93;;;;;;;12.48;100.00;98632.06;3164553;23;20358;-88
2023/09/09 00:57:00;;;;;;;5.90;4.13;;;;;;;12.55;100.00;98637.97;3165535;23;20026;-89
2023/09/09 00:58:16;;;;;;;6.38;4.25;;;;;;;12.54;100.00;98638.88;3163928;23;20049;-89
2023/09/09 00:59:31;;;;;;;5.88;4.18;;;;;;;12.57;100.00;98641.41;3165157;23;20359;-88
2023/09/09 01:00:47;;;;;;;6.75;4.70;;;;;;;12.48;100.00;98639.94;3163831;23;20576;-89
2023/09/09 01:02:03;;;;;;;7.32;4.50;;;;;;;12.52;100.00;98638.06;3164759;23;20490;-89
2023/09/09 01:03:18;;;;;;;7.95;5.13;;;;;;;12.49;100.00;98643.41;3162834;23;20029;-89
2023/09/09 01:04:34;;;;;;;6.63;4.70;;;;;;;12.42;100.00;98645.38;3163637;23;20022;-89
2023/09/09 01:05:51;;;;;;;7.13;4.50;;;;;;;12.33;100.00;98643.91;3165042;23;20092;-90
2023/09/09 01:07:07;;;;;;;6.50;4.63;;;;;;;12.42;100.00;98637.50;3164210;23;20028;-89
2023/09/09 01:08:27;;;;;;;6.50;4.63;;;;;;;12.45;100.00;98632.16;3164857;23;20065;-89
2023/09/09 01:09:42;;;;;;;6.78;4.50;;;;;;;12.36;100.00;98633.31;3163704;23;20017;-89
2023/09/09 01:10:58;;;;;;;5.68;4.40;;;;;;;12.33;100.00;98635.19;3163910;23;20022;-89
2023/09/09 01:12:13;;;;;;;7.35;4.95;;;;;;;12.23;100.00;98629.38;3165295;23;20022;-90
2023/09/09 01:13:29;;;;;;;7.75;4.90;;;;;;;12.20;100.00;98630.31;3164006;23;20813;-89
2023/09/09 01:14:45;;;;;;;9.65;5.20;;;;;;;12.21;100.00;98628.53;3165318;23;20049;-89
2023/09/09 01:16:01;;;;;;;7.07;4.85;;;;;;;12.13;100.00;98631.41;3163158;23;20022;-89
2023/09/09 01:17:17;;;;;;;5.65;4.55;;;;;;;12.14;100.00;98631.38;3164663;23;20022;-90
2023/09/09 01:18:34;;;;;;;7.38;4.82;;;;;;;12.08;100.00;98628.94;3162892;23;20029;-92
2023/09/09 01:19:51;;;;;;;7.90;4.78;;;;;;;12.03;100.00;98620.34;3147794;23;20033;-89
2023/09/09 01:21:09;;;;;;;6.75;4.97;;;;;;;12.12;100.00;98620.06;3154837;23;20763;-89
2023/09/09 01:22:24;;;;;;;7.75;4.60;;;;;;;12.19;100.00;98619.84;3163429;23;20040;-88
2023/09/09 01:23:40;;;;;;;7.93;4.93;;;;;;;12.14;100.00;98620.00;3165171;23;20026;-89
2023/09/09 01:24:55;;;;;;;8.07;4.88;;;;;;;12.12;100.00;98621.81;3148106;23;20694;-89
2023/09/09 01:26:11;;;;;;;8.52;4.40;;;;;;;12.20;100.00;98625.06;3153851;23;20017;-90
2023/09/09 01:27:26;;;;;;;8.05;4.80;;;;;;;12.17;100.00;98626.94;3147375;23;20419;-90
2023/09/09 01:28:42;;;;;;;9.43;4.60;;;;;;;12.14;100.00;98627.88;3154517;23;20021;-90
2023/09/09 01:29:58;;;;;;;7.82;4.70;;;;;;;11.99;100.00;98627.41;3165279;23;20177;-89
2023/09/09 01:31:14;;;;;;;6.80;4.50;;;;;;;11.91;100.00;98631.19;3163399;23;20461;-89
2023/09/09 01:32:30;;;;;;;6.43;4.63;;;;;;;11.82;100.00;98632.31;3164912;23;20022;-89
2023/09/09 01:33:45;;;;;;;6.60;4.70;;;;;;;11.82;100.00;98633.19;3163011;23;20069;-89
2023/09/09 01:35:06;;;;;;;8.15;4.78;;;;;;;11.81;100.00;98630.59;3164518;23;20025;-90
2023/09/09 01:36:22;;;;;;;9.20;5.15;;;;;;;11.83;100.00;98629.66;3164989;23;20447;-89
2023/09/09 01:37:37;;;;;;;9.10;4.88;;;;;;;11.90;100.00;98630.34;3163572;23;20024;-90
2023/09/09 01:38:53;;;;;;;6.97;4.93;;;;;;;11.92;100.00;98638.16;3163435;23;20382;-89
2023/09/09 01:40:11;;;;;;;8.27;4.57;;;;;;;11.87;100.00;98631.28;3162490;23;20597;-89
2023/09/09 01:41:27;;;;;;;6.80;4.47;;;;;;;11.92;100.00;98630.28;3163572;23;20025;-90
2023/09/09 01:42:42;;;;;;;7.45;5.10;;;;;;;11.92;100.00;98628.53;3147411;23;20522;-89
2023/09/09 01:43:58;;;;;;;6.68;4.95;;;;;;;11.87;100.00;98633.03;3153761;23;20526;-89
2023/09/09 01:45:14;;;;;;;6.68;4.43;;;;;;;11.90;100.00;98635.59;3164527;23;20164;-89
2023/09/09 01:46:29;;;;;;;8.70;4.93;;;;;;;11.81;100.00;98631.47;3163309;23;20486;-89
2023/09/09 01:47:45;;;;;;;6.38;4.72;;;;;;;11.79;100.00;98635.03;3164629;23;20076;-89
2023/09/09 01:49:03;;;;;;;6.63;4.57;;;;;;;11.89;100.00;98638.25;3163406;23;20088;-89
2023/09/09 01:50:18;;;;;;;6.45;4.35;;;;;;;11.91;100.00;98636.44;3163838;23;20751;-88
2023/09/09 01:51:34;;;;;;;7.60;4.25;;;;;;;11.96;100.00;98627.50;3147042;23;20057;-89
2023/09/09 01:52:49;;;;;;;6.88;4.72;;;;;;;11.95;100.00;98636.28;3138294;23;20447;-89
2023/09/09 01:54:05;;;;;;;6.28;4.60;;;;;;;11.98;100.00;98628.31;3155293;23;20033;-89
2023/09/09 01:55:21;;;;;;;8.02;4.53;;;;;;;11.83;100.00;98632.28;3163594;23;20092;-89
2023/09/09 01:56:36;;;;;;;6.18;4.38;;;;;;;11.82;100.00;98633.19;3164504;23;20458;-90
2023/09/09 01:57:52;;;;;;;7.95;4.78;;;;;;;11.72;100.00;98631.75;3163439;23;20026;-89
2023/09/09 01:59:07;;;;;;;6.05;4.75;;;;;;;11.67;100.00;98637.13;3164151;23;20807;-89
2023/09/09 02:00:24;;;;;;;7.35;4.63;;;;;;;11.66;100.00;98639.78;3162748;23;20048;-88
2023/09/09 02:01:39;;;;;;;8.98;5.00;;;;;;;11.62;100.00;98640.78;3163518;23;20028;-90
2023/09/09 02:02:55;;;;;;;9.48;4.82;;;;;;;11.65;100.00;98635.44;3147375;23;20029;-89
2023/09/09 02:04:11;;;;;;;7.38;4.95;;;;;;;11.61;100.00;98625.94;3153609;23;20026;-89
2023/09/09 02:05:26;;;;;;;7.32;5.10;;;;;;;11.59;100.00;98639.09;3164594;23;20398;-89
2023/09/09 02:06:44;;;;;;;7.78;5.00;;;;;;;11.52;100.00;98638.41;3163159;23;20025;-89
2023/09/09 02:08:00;;;;;;;7.03;5.25;;;;;;;11.43;100.00;98631.66;3164124;23;20366;-89
2023/09/09 02:09:15;;;;;;;7.85;5.20;;;;;;;11.45;100.00;98639.50;3165950;23;20029;-89
2023/09/09 02:10:31;;;;;;;9.05;5.10;;;;;;;11.49;100.00;98635.88;3169245;23;20021;-90
2023/09/09 02:11:47;;;;;;;7.47;5.10;;;;;;;11.50;100.00;98634.97;3165940;23;20065;-89
2023/09/09 02:13:04;;;;;;;8.65;4.75;;;;;;;11.46;100.00;98633.34;3163471;23;20069;-89
2023/09/09 02:14:19;;;;;;;6.80;4.75;;;;;;;11.43;100.00;98633.44;3164701;23;20301;-89
2023/09/09 02:15:35;;;;;;;8.27;5.18;;;;;;;11.58;100.00;98630.38;3163085;23;20022;-89
2023/09/09 02:16:50;;;;;;;9.10;4.68;;;;;;;11.52;100.00;98630.53;3164085;23;20057;-89
2023/09/09 02:18:06;;;;;;;7.22;4.88;;;;;;;11.54;100.00;98626.16;3164475;23;20029;-88
2023/09/09 02:19:21;;;;;;;7.10;4.78;;;;;;;11.48;100.00;98630.69;3162686;23;20022;-88
2023/09/09 02:20:37;;;;;;;7.57;5.13;;;;;;;11.45;100.00;98629.03;3148725;23;20023;-90
2023/09/09 02:21:53;;;;;;;7.72;4.82;;;;;;;11.45;100.00;98629.03;3153734;23;20033;-89
2023/09/09 02:23:10;;;;;;;8.63;5.15;;;;;;;11.52;100.00;98619.22;3164497;23;20026;-89
2023/09/09 02:24:25;;;;;;;6.80;4.60;;;;;;;11.41;100.00;98627.41;3163194;23;20017;-89
2023/09/09 02:25:41;;;;;;;7.43;4.97;;;;;;;11.36;100.00;98624.91;3163873;23;20029;-89
2023/09/09 02:26:57;;;;;;;7.40;5.18;;;;;;;11.34;100.00;98629.34;3164861;23;20017;-88
2023/09/09 02:28:13;;;;;;;7.72;4.60;;;;;;;11.25;100.00;98630.44;3163002;23;20022;-89
2023/09/09 02:29:29;;;;;;;8.02;4.70;;;;;;;11.29;100.00;98628.59;3148820;23;20061;-89
2023/09/09 02:30:44;;;;;;;7.38;4.65;;;;;;;11.37;100.00;98626.63;3153653;23;20022;-90
2023/09/09 02:32:00;;;;;;;7.28;5.10;;;;;;;11.41;100.00;98630.84;3164646;23;20167;-89
2023/09/09 02:33:15;;;;;;;7.80;5.10;;;;;;;11.24;100.00;98630.47;3163205;23;20029;-90
2023/09/09 02:34:31;;;;;;;6.78;4.85;;;;;;;11.14;100.00;98638.59;3164137;23;20021;-89
2023/09/09 02:35:46;;;;;;;8.98;5.22;;;;;;;11.13;100.00;98633.41;3162719;23;20022;-89
2023/09/09 02:37:19;;;;;;;8.95;4.35;;;;;;;11.24;100.00;98638.34;3163510;23;20026;-89
2023/09/09 02:38:35;;;;;;;7.05;4.97;;;;;;;11.21;100.00;98641.91;3163329;23;20026;-89
2023/09/09 02:39:51;;;;;;;7.35;4.90;;;;;;;11.20;100.00;98634.94;3164618;23;20049;-89
2023/09/09 02:41:07;;;;;;;8.38;4.88;;;;;;;11.24;100.00;98625.25;3162878;23;20081;-90
2023/09/09 02:42:23;;;;;;;8.07;5.47;;;;;;;11.26;100.00;98628.69;3148052;23;20050;-89
2023/09/09 02:43:39;;;;;;;8.18;5.30;;;;;;;11.21;100.00;98626.19;3153641;23;20025;-89
2023/09/09 02:44:55;;;;;;;9.90;5.18;;;;;;;11.24;100.00;98628.69;3163640;23;20022;-89
2023/09/09 02:46:11;;;;;;;10.05;5.10;;;;;;;11.30;100.00;98627.69;3162579;23;20037;-89
2023/09/09 02:47:26;;;;;;;7.80;4.78;;;;;;;11.18;100.00;98628.88;3147045;23;20056;-90
2023/09/09 02:48:43;;;;;;;7.15;5.10;;;;;;;11.23;100.00;98626.16;3138213;23;20029;-89
2023/09/09 02:49:58;;;;;;;6.63;5.28;;;;;;;11.27;100.00;98627.78;3147093;23;20474;-90
2023/09/09 02:51:14;;;;;;;9.50;5.30;;;;;;;11.23;100.00;98621.75;3153847;23;20105;-89
2023/09/09 02:52:30;;;;;;;6.95;4.65;;;;;;;11.25;100.00;98625.22;3162585;23;20029;-88
2023/09/09 02:53:45;;;;;;;7.68;4.90;;;;;;;11.14;100.00;98628.09;3163324;23;20461;-89
2023/09/09 02:55:01;;;;;;;8.02;5.00;;;;;;;11.06;100.00;98630.09;3164727;23;20022;-89
2023/09/09 02:56:17;;;;;;;6.43;4.80;;;;;;;11.05;100.00;98622.25;3163341;23;20366;-90
2023/09/09 02:57:33;;;;;;;7.80;5.00;;;;;;;10.95;100.00;98621.66;3163149;23;20514;-88
2023/09/09 02:58:48;;;;;;;8.43;5.00;;;;;;;10.92;100.00;98624.38;3163467;23;20096;-88
2023/09/09 03:00:06;;;;;;;7.97;5.28;;;;;;;10.93;100.00;98626.06;3164019;23;20100;-90
2023/09/09 03:01:21;;;;;;;7.10;5.10;;;;;;;10.87;100.00;98621.84;3162158;23;20106;-89
2023/09/09 03:02:37;;;;;;;8.02;4.78;;;;;;;10.81;100.00;98619.38;3147434;23;20026;-88
2023/09/09 03:03:52;;;;;;;7.43;5.20;;;;;;;10.82;100.00;98624.59;3154945;23;20022;-89
2023/09/09 03:05:11;;;;;;;6.80;4.47;;;;;;;10.92;100.00;98621.75;3163017;23;20025;-89
2023/09/09 03:06:27;;;;;;;6.88;4.85;;;;;;;10.96;100.00;98621.59;3164182;23;20024;-89
2023/09/09 03:07:45;;;;;;;7.68;4.85;;;;;;;10.88;100.00;98619.19;3162803;23;20029;-91
2023/09/09 03:09:01;;;;;;;7.00;4.68;;;;;;;10.97;100.00;98628.59;3163875;23;20022;-88
2023/09/09 03:10:17;;;;;;;6.95;4.75;;;;;;;10.97;100.00;98625.09;3163014;23;20072;-88
2023/09/09 03:11:32;;;;;;;7.38;4.65;;;;;;;10.98;100.00;98627.69;3147058;23;20074;-88
2023/09/09 03:12:48;;;;;;;8.95;5.07;;;;;;;11.01;100.00;98629.34;3152644;23;20081;-88
2023/09/09 03:14:04;;;;;;;9.20;5.00;;;;;;;10.96;100.00;98628.59;3162384;23;20021;-88
2023/09/09 03:15:20;;;;;;;10.38;5.03;;;;;;;10.92;100.00;98625.19;3148385;23;20025;-89
2023/09/09 03:16:38;;;;;;;8.88;5.22;;;;;;;10.94;100.00;98627.78;3153311;23;20517;-89
2023/09/09 03:17:54;;;;;;;10.23;4.88;;;;;;;10.95;100.00;98625.13;3147237;23;20106;-88
2023/09/09 03:19:09;;;;;;;7.75;5.20;;;;;;;11.00;100.00;98631.13;3148449;23;20019;-87
2023/09/09 03:20:25;;;;;;;9.10;5.43;;;;;;;10.95;100.00;98626.91;3153027;23;20036;-88
2023/09/09 03:21:41;;;;;;;8.27;5.22;;;;;;;10.91;100.00;98622.66;3163856;23;20375;-88
2023/09/09 03:22:58;;;;;;;7.90;5.18;;;;;;;10.96;100.00;98628.59;3146842;23;20029;-89
2023/09/09 03:24:14;;;;;;;8.15;5.25;;;;;;;10.95;100.00;98619.03;3154161;23;20025;-88
2023/09/09 03:25:30;;;;;;;7.55;5.25;;;;;;;11.00;100.00;98619.75;3147086;23;20027;-90
2023/09/09 03:26:46;;;;;;;9.25;5.10;;;;;;;11.00;100.00;98630.25;3153537;23;20025;-89
2023/09/09 03:28:02;;;;;;;7.57;4.82;;;;;;;11.06;100.00;98622.22;3163176;23;20049;-88
2023/09/09 03:29:18;;;;;;;6.20;4.50;;;;;;;11.07;100.00;98623.06;3163098;23;20083;-88
2023/09/09 03:30:55;;;;;;;6.45;4.63;;;;;;;11.08;100.00;98617.81;3164021;23;20022;-89
2023/09/09 03:32:10;;;;;;;6.07;4.63;;;;;;;11.13;100.00;98623.78;3162291;23;20162;-87
2023/09/09 03:33:27;;;;;;;6.55;4.63;;;;;;;11.16;100.00;98623.69;3164193;23;20126;-87
2023/09/09 03:34:43;;;;;;;8.60;4.72;;;;;;;11.15;100.00;98623.75;3147135;23;20034;-87
2023/09/09 03:35:59;;;;;;;6.63;4.93;;;;;;;11.07;100.00;98629.19;3153391;23;20324;-88
2023/09/09 03:37:14;;;;;;;7.90;4.90;;;;;;;11.00;100.00;98631.13;3162771;23;20053;-88
2023/09/09 03:38:30;;;;;;;6.63;4.68;;;;;;;10.92;100.00;98624.38;3163555;23;20028;-90
2023/09/09 03:39:45;;;;;;;7.72;5.07;;;;;;;10.93;100.00;98626.91;3146655;23;20071;-89
2023/09/09 03:41:05;;;;;;;7.22;4.70;;;;;;;10.94;100.00;98633.03;3152459;23;20021;-87
2023/09/09 03:42:20;;;;;;;7.05;4.88;;;;;;;10.85;100.00;98626.28;3164216;23;20028;-88
2023/09/09 03:43:39;;;;;;;7.05;4.45;;;;;;;10.82;100.00;98629.84;3146869;23;20077;-88
2023/09/09 03:44:55;;;;;;;6.28;4.57;;;;;;;10.70;100.00;98624.91;3154514;23;20026;-87
2023/09/09 03:46:11;;;;;;;6.15;4.57;;;;;;;10.56;100.00;98628.72;3146851;23;20022;-90
2023/09/09 03:47:26;;;;;;;7.70;4.85;;;;;;;10.57;100.00;98633.06;3153616;23;20025;-87
2023/09/09 03:48:46;;;;;;;6.63;4.60;;;;;;;10.35;100.00;98631.84;3164353;23;20097;-88
2023/09/09 03:50:02;;;;;;;6.50;4.05;;;;;;;10.28;100.00;98624.13;3162600;23;20093;-88
2023/09/09 03:51:22;;;;;;;8.48;4.57;;;;;;;10.27;100.00;98627.66;3147287;23;20073;-89
2023/09/09 03:52:38;;;;;;;9.07;5.32;;;;;;;10.39;100.00;98626.50;3155558;23;20032;-87
2023/09/09 03:53:53;;;;;;;8.45;5.40;;;;;;;10.53;100.00;98626.19;3163320;23;20021;-88
2023/09/09 03:55:09;;;;;;;7.95;5.53;;;;;;;10.59;100.00;98623.41;3164463;23;20455;-89
2023/09/09 03:56:24;;;;;;;7.30;4.95;;;;;;;10.68;100.00;98629.31;3164103;23;20340;-89
2023/09/09 03:57:40;;;;;;;8.65;4.85;;;;;;;10.65;100.00;98632.03;3171857;23;20022;-88
2023/09/09 03:58:56;;;;;;;10.18;5.53;;;;;;;10.71;100.00;98629.25;3166227;23;20022;-88
2023/09/09 04:00:12;;;;;;;9.25;5.18;;;;;;;10.77;100.00;98633.47;3147405;23;20050;-88
2023/09/09 04:01:28;;;;;;;11.25;5.18;;;;;;;10.74;100.00;98639.63;3153484;23;20037;-88
2023/09/09 04:02:45;;;;;;;7.10;4.70;;;;;;;10.63;100.00;98639.91;3163518;23;20021;-88
2023/09/09 04:04:00;;;;;;;5.78;4.53;;;;;;;10.60;100.00;98640.00;3164504;23;20344;-87
2023/09/09 04:05:16;;;;;;;9.10;5.60;;;;;;;10.42;100.00;98636.06;3146663;23;20440;-87
2023/09/09 04:06:32;;;;;;;7.60;5.20;;;;;;;10.30;100.00;98631.97;3152727;23;20022;-87
2023/09/09 04:07:48;;;;;;;7.07;4.90;;;;;;;10.13;100.00;98630.59;3162879;23;20362;-90
2023/09/09 04:09:03;;;;;;;7.35;4.85;;;;;;;10.08;100.00;98631.59;3163295;23;20018;-88
2023/09/09 04:10:18;;;;;;;7.00;5.10;;;;;;;10.22;100.00;98639.13;3164354;23;20454;-88
2023/09/09 04:11:34;;;;;;;7.45;4.90;;;;;;;10.22;100.00;98634.75;3147015;23;20022;-87
2023/09/09 04:12:50;;;;;;;6.93;4.85;;;;;;;10.30;100.00;98637.19;3154198;23;20390;-92
2023/09/09 04:14:06;;;;;;;6.82;4.82;;;;;;;10.40;100.00;98632.59;3162488;23;20072;-88
2023/09/09 04:15:21;;;;;;;7.60;5.18;;;;;;;10.37;100.00;98637.91;3162463;23;20060;-90
2023/09/09 04:16:37;;;;;;;9.30;5.32;;;;;;;10.32;100.00;98635.41;3162538;23;20530;-89
2023/09/09 04:17:52;;;;;;;7.68;4.93;;;;;;;10.31;100.00;98631.91;3163296;23;20033;-90
2023/09/09 04:19:08;;;;;;;8.82;5.30;;;;;;;10.37;100.00;98633.53;3162508;23;20014;-89
2023/09/09 04:20:24;;;;;;;8.00;5.07;;;;;;;10.42;100.00;98636.06;3147230;23;20454;-89
2023/09/09 04:21:39;;;;;;;7.30;5.03;;;;;;;10.45;100.00;98630.75;3153014;23;20532;-89
2023/09/09 04:22:55;;;;;;;7.97;5.13;;;;;;;10.50;100.00;98639.38;3163135;23;20022;-90
2023/09/09 04:24:10;;;;;;;6.68;5.13;;;;;;;10.45;100.00;98630.75;3164113;23;20475;-90
2023/09/09 04:25:26;;;;;;;8.45;5.20;;;;;;;10.52;100.00;98634.94;3162684;23;20747;-90
2023/09/09 04:26:41;;;;;;;7.10;5.03;;;;;;;10.46;100.00;98637.69;3162438;23;20475;-90
2023/09/09 04:27:57;;;;;;;8.57;5.05;;;;;;;10.46;100.00;98648.16;3162958;23;20065;-90
2023/09/09 04:29:12;;;;;;;7.45;5.22;;;;;;;10.50;100.00;98641.13;3163354;23;20725;-90
2023/09/09 04:30:28;;;;;;;7.35;5.20;;;;;;;10.50;100.00;98644.59;3163148;23;20017;-90
2023/09/09 04:31:43;;;;;;;8.75;4.70;;;;;;;10.47;100.00;98651.66;3131656;23;20581;-88
2023/09/09 04:32:59;;;;;;;7.93;5.32;;;;;;;10.43;100.00;98650.88;3145668;23;20041;-87
2023/09/09 04:34:16;;;;;;;7.78;5.43;;;;;;;10.45;100.00;98643.84;3162818;23;20018;-88
2023/09/09 04:35:31;;;;;;;7.05;5.00;;;;;;;10.43;100.00;98648.25;3163932;23;20551;-88
2023/09/09 04:36:47;;;;;;;7.60;5.07;;;;;;;10.39;100.00;98651.81;3162645;23;20526;-88
2023/09/09 04:38:03;;;;;;;6.40;4.60;;;;;;;10.39;100.00;98652.66;3163498;23;20362;-90
2023/09/09 04:39:18;;;;;;;7.65;5.18;;;;;;;10.45;100.00;98652.56;3146750;23;20023;-90
2023/09/09 04:40:35;;;;;;;8.50;5.50;;;;;;;10.45;100.00;98657.81;3138093;23;20430;-90
2023/09/09 04:41:50;;;;;;;8.05;5.07;;;;;;;10.48;100.00;98659.50;3154647;23;20517;-90
2023/09/09 04:43:07;;;;;;;8.48;5.20;;;;;;;10.50;100.00;98655.06;3146731;23;20022;-89
2023/09/09 04:44:22;;;;;;;8.32;5.18;;;;;;;10.44;100.00;98656.09;3154286;23;20536;-88
2023/09/09 04:45:37;;;;;;;8.85;4.90;;;;;;;10.43;100.00;98650.88;3162343;23;20025;-89
2023/09/09 04:46:53;;;;;;;7.80;5.25;;;;;;;10.40;100.00;98650.91;3162349;23;20092;-89
2023/09/09 04:48:10;;;;;;;8.18;5.13;;;;;;;10.44;100.00;98660.44;3162643;23;20028;-90
2023/09/09 04:49:25;;;;;;;6.80;4.85;;;;;;;10.50;100.00;98655.06;3162514;23;20024;-89
2023/09/09 04:50:41;;;;;;;7.00;4.68;;;;;;;10.53;100.00;98660.22;3163097;23;20033;-90
2023/09/09 04:51:57;;;;;;;6.65;4.95;;;;;;;10.57;100.00;98663.63;3163215;23;20022;-89
2023/09/09 04:53:16;;;;;;;6.93;4.68;;;;;;;10.52;100.00;98662.88;3163135;23;20018;-90
2023/09/09 04:54:31;;;;;;;7.78;5.03;;;;;;;10.43;100.00;98659.59;3146509;23;20374;-88
2023/09/09 04:55:47;;;;;;;7.10;5.13;;;;;;;10.32;100.00;98661.56;3153972;23;20329;-89
2023/09/09 04:57:04;;;;;;;5.93;4.40;;;;;;;10.32;100.00;98659.81;3165228;23;20548;-88
2023/09/09 04:58:20;;;;;;;6.88;4.65;;;;;;;10.36;100.00;98659.75;3163852;23;20058;-89
2023/09/09 04:59:35;;;;;;;6.38;4.43;;;;;;;10.30;100.00;98658.97;3147407;23;20486;-88
2023/09/09 05:00:51;;;;;;;6.22;4.35;;;;;;;10.32;100.00;98661.56;3154194;23;20014;-88
2023/09/09 05:02:07;;;;;;;7.10;4.30;;;;;;;10.34;100.00;98667.63;3164538;23;20022;-89
2023/09/09 05:03:24;;;;;;;7.20;4.78;;;;;;;10.27;100.00;98666.91;3163680;23;20018;-88
2023/09/09 05:04:40;;;;;;;8.20;5.05;;;;;;;10.32;100.00;98665.03;3147736;23;20026;-89
2023/09/09 05:05:55;;;;;;;8.35;4.97;;;;;;;10.41;100.00;98668.38;3155436;23;20491;-88
2023/09/09 05:07:11;;;;;;;8.45;5.40;;;;;;;10.41;100.00;98666.63;3163796;23;20322;-90
2023/09/09 05:08:27;;;;;;;6.28;4.82;;;;;;;10.49;100.00;98666.44;3165021;23;20029;-89
2023/09/09 05:09:42;;;;;;;7.03;4.97;;;;;;;10.48;100.00;98664.72;3163589;23;20026;-89
2023/09/09 05:10:58;;;;;;;8.70;5.20;;;;;;;10.51;100.00;98666.38;3164393;23;20021;-89
2023/09/09 05:12:14;;;;;;;7.22;4.50;;;;;;;10.52;100.00;98662.88;3165380;23;20018;-89
2023/09/09 05:13:29;;;;;;;10.07;5.53;;;;;;;10.57;100.00;98663.63;3164124;23;20025;-88
2023/09/09 05:14:45;;;;;;;7.20;4.95;;;;;;;10.60;100.00;98666.19;3148941;23;20026;-88
2023/09/09 05:16:00;;;;;;;7.60;5.00;;;;;;;10.66;100.00;98665.16;3153995;23;20029;-89
2023/09/09 05:17:16;;;;;;;9.27;5.35;;;;;;;10.69;100.00;98663.34;3149055;23;20023;-89
2023/09/09 05:18:32;;;;;;;8.13;4.85;;;;;;;10.69;100.00;98657.22;3138828;23;20031;-88
2023/09/09 05:19:47;;;;;;;7.55;5.30;;;;;;;10.77;100.00;98664.91;3154662;23;20369;-90
2023/09/09 05:21:03;;;;;;;7.70;5.15;;;;;;;10.85;100.00;98666.41;3162684;23;20022;-88
2023/09/09 05:22:18;;;;;;;11.90;5.28;;;;;;;10.93;100.00;98668.00;3164158;23;20470;-89
2023/09/09 05:23:35;;;;;;;7.72;4.82;;;;;;;10.97;100.00;98669.63;3165361;23;20436;-88
2023/09/09 05:24:50;;;;;;;8.02;5.10;;;;;;;11.02;100.00;98667.72;3163154;23;20335;-89
2023/09/09 05:26:06;;;;;;;6.90;4.85;;;;;;;11.04;100.00;98667.72;3165088;23;20025;-87
2023/09/09 05:27:22;;;;;;;7.20;4.95;;;;;;;11.04;100.00;98665.97;3162833;23;20056;-88
2023/09/09 05:28:37;;;;;;;10.05;5.80;;;;;;;11.06;100.00;98674.63;3158118;23;20038;-88
2023/09/09 05:29:53;;;;;;;9.07;6.32;;;;;;;11.06;100.00;98663.28;3153546;23;20017;-88
2023/09/09 05:31:08;;;;;;;9.60;5.80;;;;;;;11.02;100.00;98667.72;3163181;23;20022;-88
2023/09/09 05:32:24;;;;;;;7.65;5.60;;;;;;;11.00;100.00;98669.53;3149236;23;20027;-88
2023/09/09 05:33:40;;;;;;;9.93;5.70;;;;;;;11.02;100.00;98678.22;3153794;23;20028;-88
2023/09/09 05:34:56;;;;;;;9.38;6.00;;;;;;;11.12;100.00;98671.00;3163205;23;20017;-88
2023/09/09 05:36:11;;;;;;;9.38;5.75;;;;;;;11.20;100.00;98668.16;3147704;23;20169;-89
2023/09/09 05:37:28;;;;;;;13.43;6.22;;;;;;;11.27;100.00;98670.56;3154020;23;20014;-89
2023/09/09 05:38:44;;;;;;;7.53;5.55;;;;;;;11.25;100.00;98674.13;3146886;23;20022;-90
2023/09/09 05:40:00;;;;;;;9.20;5.85;;;;;;;11.34;100.00;98673.91;3154514;23;20354;-88
2023/09/09 05:41:16;;;;;;;7.32;5.65;;;;;;;11.40;100.00;98676.34;3164956;23;20022;-89
2023/09/09 05:42:32;;;;;;;6.90;5.18;;;;;;;11.48;100.00;98675.28;3164008;23;20022;-88
2023/09/09 05:43:47;;;;;;;9.13;5.95;;;;;;;11.52;100.00;98679.53;3149166;23;20487;-89
2023/09/09 05:45:03;;;;;;;9.55;5.85;;;;;;;11.48;100.00;98672.66;3156752;23;20050;-90
2023/09/09 05:46:19;;;;;;;8.45;5.45;;;;;;;11.39;100.00;98676.41;3155490;23;20033;-89
2023/09/09 05:47:35;;;;;;;9.35;5.32;;;;;;;11.44;100.00;98675.34;3140965;23;20114;-89
2023/09/09 05:48:51;;;;;;;8.23;5.88;;;;;;;11.51;100.00;98673.41;3139189;23;20074;-89
2023/09/09 05:50:07;;;;;;;9.10;6.20;;;;;;;11.69;100.00;98669.41;3153963;23;20471;-89
2023/09/09 05:51:22;;;;;;;10.93;6.55;;;;;;;11.65;100.00;98667.78;3147815;23;20081;-92
2023/09/09 05:52:38;;;;;;;8.65;5.75;;;;;;;11.83;100.00;98669.00;3123071;23;20105;-89
2023/09/09 05:53:54;;;;;;;8.43;6.05;;;;;;;11.85;100.00;98671.56;3129555;23;20018;-89